Time;durP1;ratioP1;P1;durP2;ratioP2;P2;SDS_P1;SDS_P2;PMS_P1;PMS_P2;Temp;Humidity;BMP_temperature;BMP_pressure;BME280_temperature;BME280_humidity;BME280_pressure;Samples;Min_cycle;Max_cycle;Signal;HPM_P1;HPM_P2
2021/04/27 00:00:45;;;;;;;10.13;4.25;;;9.30;92.00;;;;;;5064650;28;20024;-71
2021/04/27 00:03:11;;;;;;;8.27;4.50;;;9.30;92.40;;;;;;5063112;28;20132;-72
2021/04/27 00:05:37;;;;;;;10.82;4.97;;;9.30;92.20;;;;;;5064129;28;20016;-72
2021/04/27 00:08:03;;;;;;;9.48;4.65;;;9.20;92.20;;;;;;5068878;28;20047;-72
2021/04/27 00:10:30;;;;;;;6.72;4.18;;;9.20;92.50;;;;;;5056913;28;20047;-72
2021/04/27 00:12:56;;;;;;;6.97;4.28;;;9.10;92.60;;;;;;5066445;28;20036;-71
2021/04/27 00:15:24;;;;;;;9.65;4.75;;;9.10;92.70;;;;;;5068573;28;20025;-70
2021/04/27 00:17:50;;;;;;;7.82;4.15;;;9.20;92.70;;;;;;5071456;28;20493;-70
2021/04/27 00:20:17;;;;;;;13.85;4.90;;;9.10;92.80;;;;;;5068176;28;20024;-70
2021/04/27 00:22:43;;;;;;;11.93;4.30;;;9.10;93.10;;;;;;5067455;28;20054;-69
2021/04/27 00:25:09;;;;;;;8.48;3.97;;;9.00;93.20;;;;;;5069648;28;20016;-71
2021/04/27 00:27:36;;;;;;;11.20;5.05;;;9.00;93.40;;;;;;5074483;28;20516;-71
2021/04/27 00:30:06;;;;;;;10.60;3.90;;;9.00;93.80;;;;;;5068374;28;20056;-69
2021/04/27 00:32:32;;;;;;;11.05;4.80;;;9.00;93.20;;;;;;5062910;28;20031;-71
2021/04/27 00:34:57;;;;;;;15.57;3.83;;;9.00;94.10;;;;;;5072001;28;20028;-70
2021/04/27 00:37:23;;;;;;;7.78;4.38;;;9.00;94.00;;;;;;5073280;28;20125;-71
2021/04/27 00:39:49;;;;;;;7.43;4.50;;;8.90;93.70;;;;;;5067002;28;20062;-71
2021/04/27 00:42:14;;;;;;;7.13;4.00;;;8.90;94.10;;;;;;5060348;28;20016;-70
2021/04/27 00:44:40;;;;;;;11.82;4.47;;;8.90;94.30;;;;;;5069081;28;20032;-72
2021/04/27 00:47:06;;;;;;;10.35;4.20;;;8.90;94.30;;;;;;5065605;28;20942;-70
2021/04/27 00:49:31;;;;;;;11.65;4.03;;;8.90;94.70;;;;;;5066117;28;20111;-72
2021/04/27 00:51:57;;;;;;;8.30;4.93;;;8.80;94.50;;;;;;5062655;28;20095;-71
2021/04/27 00:54:23;;;;;;;9.45;4.18;;;8.60;95.00;;;;;;5069822;28;20024;-70
2021/04/27 00:56:49;;;;;;;8.20;4.03;;;8.70;95.00;;;;;;5072107;28;20016;-71
2021/04/27 00:59:15;;;;;;;7.38;3.97;;;8.60;94.70;;;;;;5065108;28;20486;-69
2021/04/27 01:01:40;;;;;;;11.50;3.92;;;8.60;95.20;;;;;;5062343;28;20036;-71
2021/04/27 01:04:06;;;;;;;7.78;4.35;;;8.70;95.10;;;;;;5066168;28;20064;-70
2021/04/27 01:06:32;;;;;;;7.35;4.45;;;8.60;95.20;;;;;;5050425;28;20111;-71
2021/04/27 01:09:01;;;;;;;6.32;3.95;;;8.60;95.00;;;;;;5071655;28;20469;-71
2021/04/27 01:11:47;;;;;;;9.30;5.20;;;8.60;95.60;;;;;;5051399;28;20023;-72
2021/04/27 01:14:38;;;;;;;8.90;4.53;;;8.60;95.60;;;;;;5060457;28;20032;-72
2021/04/27 01:17:09;;;;;;;8.38;4.57;;;8.60;95.90;;;;;;5062590;28;20040;-71
2021/04/27 01:19:55;;;;;;;12.02;5.07;;;8.60;95.80;;;;;;5067246;28;20041;-71
2021/04/27 01:22:33;;;;;;;8.30;4.53;;;8.50;95.60;;;;;;5052691;28;20029;-71
2021/04/27 01:25:03;;;;;;;8.77;4.47;;;8.50;95.60;;;;;;5059633;28;20066;-72
2021/04/27 01:27:29;;;;;;;9.05;4.75;;;8.50;96.00;;;;;;5062460;28;20036;-70
2021/04/27 01:29:55;;;;;;;7.70;3.97;;;8.40;96.20;;;;;;5065252;28;20036;-71
2021/04/27 01:32:21;;;;;;;8.38;4.40;;;8.40;96.30;;;;;;5068918;28;20025;-70
2021/04/27 01:34:48;;;;;;;6.53;4.75;;;8.40;96.20;;;;;;5065422;28;20028;-72
2021/04/27 01:37:14;;;;;;;7.47;4.65;;;8.40;96.00;;;;;;5068978;28;20036;-71
2021/04/27 01:39:42;;;;;;;8.60;5.03;;;8.30;96.40;;;;;;5059329;28;20029;-70
2021/04/27 01:42:08;;;;;;;8.02;5.05;;;8.30;96.60;;;;;;5063976;28;20099;-72
2021/04/27 01:44:37;;;;;;;7.28;4.57;;;8.40;96.50;;;;;;5059567;28;20051;-72
2021/04/27 01:47:04;;;;;;;10.07;4.57;;;8.30;96.50;;;;;;5062575;28;20033;-71
2021/04/27 01:49:30;;;;;;;8.40;4.80;;;8.20;96.70;;;;;;5069335;28;20030;-71
2021/04/27 01:51:57;;;;;;;9.88;5.13;;;8.10;96.70;;;;;;5057328;28;20060;-71
2021/04/27 01:54:29;;;;;;;7.68;4.45;;;8.10;96.80;;;;;;5067927;28;20023;-69
2021/04/27 01:56:55;;;;;;;13.63;5.18;;;8.00;96.80;;;;;;5065438;28;20024;-72
2021/04/27 01:59:21;;;;;;;6.45;4.97;;;8.00;97.00;;;;;;5060168;28;20039;-72
2021/04/27 02:01:47;;;;;;;8.50;4.75;;;8.10;96.80;;;;;;5067836;28;20059;-71
2021/04/27 02:04:24;;;;;;;10.73;5.50;;;8.00;97.10;;;;;;5071477;28;20074;-72
2021/04/27 02:06:51;;;;;;;11.30;4.70;;;8.00;96.90;;;;;;5066444;28;20024;-71
2021/04/27 02:09:17;;;;;;;9.73;4.90;;;8.00;97.00;;;;;;5068113;28;20414;-72
2021/04/27 02:11:47;;;;;;;14.40;5.30;;;8.00;97.00;;;;;;5063501;28;20030;-71
2021/04/27 02:14:14;;;;;;;10.27;4.57;;;8.00;97.30;;;;;;5083737;28;20029;-72
2021/04/27 02:16:57;;;;;;;8.52;4.85;;;7.90;97.40;;;;;;5073300;28;20027;-71
2021/04/27 02:19:29;;;;;;;7.15;5.10;;;7.80;97.80;;;;;;5071229;28;20115;-71
2021/04/27 02:21:59;;;;;;;9.02;4.95;;;7.80;97.60;;;;;;5053576;28;20492;-71
2021/04/27 02:24:25;;;;;;;10.35;5.20;;;7.80;97.60;;;;;;5068909;28;20533;-72
2021/04/27 02:26:52;;;;;;;9.27;5.78;;;7.70;97.80;;;;;;5066208;28;20501;-71
2021/04/27 02:29:19;;;;;;;12.90;4.85;;;7.70;97.80;;;;;;5062450;28;20032;-72
2021/04/27 02:31:46;;;;;;;10.18;5.20;;;7.60;98.00;;;;;;5061771;28;20021;-71
2021/04/27 02:34:12;;;;;;;13.27;5.35;;;7.60;97.90;;;;;;5068514;28;20074;-72
2021/04/27 02:36:39;;;;;;;8.23;4.47;;;7.60;98.30;;;;;;5071796;28;20054;-71
2021/04/27 02:39:09;;;;;;;10.07;5.00;;;7.50;98.00;;;;;;5059031;28;20036;-71
2021/04/27 02:41:36;;;;;;;7.90;5.07;;;7.60;98.20;;;;;;5076103;28;20082;-70
2021/04/27 02:44:02;;;;;;;12.57;5.05;;;7.50;98.30;;;;;;5072822;28;20021;-71
2021/04/27 02:46:28;;;;;;;9.57;5.80;;;7.50;98.20;;;;;;5072393;28;20091;-70
2021/04/27 02:48:55;;;;;;;9.00;5.78;;;7.40;98.40;;;;;;5056423;28;20025;-71
2021/04/27 02:51:21;;;;;;;7.53;5.30;;;7.40;97.90;;;;;;5062286;28;20386;-72
2021/04/27 02:53:47;;;;;;;11.05;5.35;;;7.30;98.80;;;;;;5065773;28;20036;-71
2021/04/27 02:56:13;;;;;;;10.13;5.20;;;7.30;99.00;;;;;;5051497;28;20020;-70
2021/04/27 02:58:39;;;;;;;8.35;5.90;;;7.30;98.60;;;;;;5065177;28;20063;-71
2021/04/27 03:01:04;;;;;;;9.55;5.53;;;7.20;98.90;;;;;;5068380;28;20369;-70
2021/04/27 03:03:30;;;;;;;8.85;5.20;;;7.20;98.90;;;;;;5064121;28;20409;-70
2021/04/27 03:05:55;;;;;;;9.85;5.78;;;7.20;99.20;;;;;;5070409;28;20032;-71
2021/04/27 03:08:21;;;;;;;9.57;5.40;;;7.20;99.30;;;;;;5067460;28;20024;-70
2021/04/27 03:10:47;;;;;;;11.35;5.80;;;7.20;99.40;;;;;;5064882;28;20024;-70
2021/04/27 03:13:12;;;;;;;12.05;5.93;;;7.10;99.20;;;;;;5060571;28;20021;-72
2021/04/27 03:15:38;;;;;;;8.30;5.40;;;7.20;99.40;;;;;;5056335;28;20029;-71
2021/04/27 03:18:04;;;;;;;10.95;5.82;;;7.10;99.50;;;;;;5065306;28;20044;-72
2021/04/27 03:20:30;;;;;;;8.68;5.75;;;7.10;99.60;;;;;;5066010;28;20016;-71
2021/04/27 03:22:55;;;;;;;12.73;5.88;;;7.00;99.80;;;;;;5068287;28;20119;-71
2021/04/27 03:25:21;;;;;;;7.68;5.68;;;7.00;99.90;;;;;;5057997;28;20028;-71
2021/04/27 03:27:47;;;;;;;7.85;5.10;;;7.00;99.90;;;;;;5076373;28;20553;-71
2021/04/27 03:30:14;;;;;;;10.00;5.65;;;6.90;99.90;;;;;;5065065;28;20032;-71
2021/04/27 03:32:40;;;;;;;8.80;5.55;;;6.90;99.90;;;;;;5065381;28;20116;-72
2021/04/27 03:35:08;;;;;;;7.97;5.57;;;6.80;99.90;;;;;;5065856;28;20362;-71
2021/04/27 03:37:34;;;;;;;7.70;5.68;;;6.80;99.90;;;;;;5058256;28;20037;-72
2021/04/27 03:39:59;;;;;;;10.63;6.13;;;6.90;99.90;;;;;;5065032;28;20024;-71
2021/04/27 03:42:25;;;;;;;14.15;6.20;;;6.80;99.90;;;;;;5068984;28;20063;-72
2021/04/27 03:44:51;;;;;;;8.82;6.32;;;6.90;99.70;;;;;;5061254;28;20104;-72
2021/04/27 03:47:17;;;;;;;8.32;6.40;;;6.90;99.80;;;;;;5065282;28;20043;-71
2021/04/27 03:49:42;;;;;;;12.52;6.85;;;6.80;99.80;;;;;;5064687;28;20386;-71
2021/04/27 03:52:08;;;;;;;8.68;6.50;;;6.80;99.80;;;;;;5058807;28;20032;-70
2021/04/27 03:54:34;;;;;;;14.13;6.47;;;6.80;99.80;;;;;;5069317;28;20358;-71
2021/04/27 03:57:02;;;;;;;11.60;6.47;;;6.80;99.90;;;;;;5069081;28;20267;-72
2021/04/27 03:59:28;;;;;;;9.60;6.13;;;6.80;99.90;;;;;;5066646;28;20416;-71
2021/04/27 04:01:53;;;;;;;12.00;6.32;;;6.80;99.80;;;;;;5060977;28;20020;-72
2021/04/27 04:04:19;;;;;;;7.15;6.25;;;6.70;99.90;;;;;;5069264;28;20436;-71
2021/04/27 04:06:45;;;;;;;11.95;7.63;;;6.60;99.90;;;;;;5070659;28;20062;-71
2021/04/27 04:09:11;;;;;;;10.27;7.22;;;6.60;99.90;;;;;;5067729;28;20476;-72
2021/04/27 04:11:37;;;;;;;8.85;6.72;;;6.60;99.90;;;;;;5069085;28;20363;-72
2021/04/27 04:14:03;;;;;;;13.35;6.20;;;6.40;99.90;;;;;;5059209;28;20477;-73
2021/04/27 04:16:29;;;;;;;10.25;6.60;;;6.40;99.90;;;;;;5063134;28;20075;-71
2021/04/27 04:18:54;;;;;;;14.63;7.53;;;6.40;99.90;;;;;;5059553;28;20429;-72
2021/04/27 04:21:22;;;;;;;10.48;6.70;;;6.30;99.90;;;;;;5062702;28;20451;-72
2021/04/27 04:23:48;;;;;;;15.50;6.57;;;6.20;99.90;;;;;;5067948;28;20432;-72
2021/04/27 04:26:14;;;;;;;11.57;6.93;;;6.20;99.90;;;;;;5069765;28;20017;-72
2021/04/27 04:28:39;;;;;;;14.07;6.82;;;6.10;99.90;;;;;;5071596;28;20436;-71
2021/04/27 04:31:05;;;;;;;11.38;6.85;;;6.10;99.90;;;;;;5062659;28;20033;-72
2021/04/27 04:33:31;;;;;;;9.63;7.00;;;6.10;99.90;;;;;;5063289;28;20025;-72
2021/04/27 04:35:56;;;;;;;12.00;6.82;;;6.10;99.90;;;;;;5070768;28;20500;-72
2021/04/27 04:38:23;;;;;;;12.88;7.88;;;6.00;99.90;;;;;;5066894;28;20036;-72
2021/04/27 04:40:49;;;;;;;10.02;7.18;;;6.10;99.90;;;;;;5066175;28;20074;-72
2021/04/27 04:43:16;;;;;;;13.05;7.35;;;6.00;99.90;;;;;;5068309;28;20021;-72
2021/04/27 04:45:42;;;;;;;12.43;7.32;;;6.00;99.90;;;;;;5060823;28;20073;-72
2021/04/27 04:48:08;;;;;;;8.98;7.47;;;6.00;99.90;;;;;;5061904;28;20032;-72
2021/04/27 04:50:34;;;;;;;14.57;8.05;;;6.00;99.90;;;;;;5064891;28;20044;-72
2021/04/27 04:53:00;;;;;;;11.85;7.53;;;6.00;99.90;;;;;;5059554;28;20028;-72
2021/04/27 04:55:26;;;;;;;12.63;7.18;;;6.10;99.90;;;;;;5065353;28;20020;-70
2021/04/27 04:57:52;;;;;;;12.40;7.00;;;6.20;99.90;;;;;;5064181;28;20037;-71
2021/04/27 05:00:19;;;;;;;12.43;7.72;;;6.20;99.90;;;;;;5060763;28;20052;-70
2021/04/27 05:02:45;;;;;;;12.80;7.32;;;6.20;99.90;;;;;;5051153;28;20397;-71
2021/04/27 05:05:11;;;;;;;12.88;7.60;;;6.20;99.90;;;;;;5067769;28;20033;-71
2021/04/27 05:07:45;;;;;;;9.77;7.70;;;6.20;99.90;;;;;;5061774;28;20119;-71
2021/04/27 05:10:12;;;;;;;14.10;8.38;;;6.30;99.90;;;;;;5067352;28;20111;-71
2021/04/27 05:12:38;;;;;;;10.50;6.80;;;6.20;99.90;;;;;;5068054;28;20108;-70
2021/04/27 05:15:05;;;;;;;8.27;6.72;;;6.30;99.90;;;;;;5071513;28;20120;-70
2021/04/27 05:17:30;;;;;;;10.57;6.68;;;6.30;99.90;;;;;;5065612;28;20025;-71
2021/04/27 05:19:59;;;;;;;11.05;7.40;;;6.50;99.90;;;;;;5066684;28;20564;-72
2021/04/27 05:22:25;;;;;;;13.43;8.27;;;6.50;99.90;;;;;;5071700;28;20102;-71
2021/04/27 05:24:51;;;;;;;12.65;7.68;;;6.60;99.90;;;;;;5067671;28;20119;-71
2021/04/27 05:27:17;;;;;;;11.90;7.35;;;6.60;99.90;;;;;;5068310;28;20369;-71
2021/04/27 05:29:42;;;;;;;13.38;7.22;;;6.70;99.90;;;;;;5065080;28;20028;-71
2021/04/27 05:32:08;;;;;;;11.65;7.32;;;6.70;99.90;;;;;;5072199;28;20067;-71
2021/04/27 05:34:35;;;;;;;10.25;7.10;;;6.60;99.90;;;;;;5052701;28;20373;-71
2021/04/27 05:37:01;;;;;;;14.95;7.40;;;6.70;99.90;;;;;;5072230;28;20537;-72
2021/04/27 05:39:27;;;;;;;10.15;6.88;;;6.90;99.90;;;;;;5067054;28;20040;-72
2021/04/27 05:41:52;;;;;;;11.25;7.60;;;7.00;99.90;;;;;;5057930;28;20033;-71
2021/04/27 05:44:18;;;;;;;7.50;6.22;;;7.00;99.90;;;;;;5064865;28;20033;-70
2021/04/27 05:46:44;;;;;;;10.63;7.43;;;7.10;99.90;;;;;;5066413;28;20039;-70
2021/04/27 05:49:09;;;;;;;16.08;7.60;;;7.00;99.90;;;;;;5062722;28;20012;-71
2021/04/27 05:51:35;;;;;;;14.60;7.75;;;7.10;99.90;;;;;;5071764;28;20085;-70
2021/04/27 05:54:01;;;;;;;11.60;7.40;;;7.20;99.90;;;;;;5062592;28;20473;-71
2021/04/27 05:56:27;;;;;;;12.00;7.43;;;7.20;99.90;;;;;;5067836;28;20543;-72
2021/04/27 05:58:52;;;;;;;11.07;6.65;;;7.10;99.90;;;;;;5069532;28;20073;-72
2021/04/27 06:01:18;;;;;;;13.38;8.80;;;7.20;99.90;;;;;;5060586;28;20034;-72
2021/04/27 06:03:44;;;;;;;14.95;8.35;;;7.20;99.90;;;;;;5065280;28;20032;-72
2021/04/27 06:06:09;;;;;;;14.73;7.93;;;7.40;99.90;;;;;;5068598;28;20516;-71
2021/04/27 06:08:38;;;;;;;15.20;8.15;;;7.50;99.90;;;;;;5067078;28;20016;-71
2021/04/27 06:11:06;;;;;;;15.90;7.60;;;7.50;99.90;;;;;;5071045;28;20135;-72
2021/04/27 06:13:32;;;;;;;10.93;8.02;;;7.60;99.90;;;;;;5071667;28;20025;-72
2021/04/27 06:15:58;;;;;;;14.13;7.40;;;7.70;99.90;;;;;;5064382;28;20025;-72
2021/04/27 06:18:24;;;;;;;12.75;7.03;;;7.80;99.90;;;;;;5068558;28;20512;-72
2021/04/27 06:20:50;;;;;;;14.02;7.35;;;7.70;99.90;;;;;;5068931;28;20112;-72
2021/04/27 06:23:16;;;;;;;11.75;6.18;;;7.60;99.90;;;;;;5070997;28;20032;-72
2021/04/27 06:25:41;;;;;;;14.45;7.60;;;7.70;99.90;;;;;;5067590;28;20034;-72
2021/04/27 06:28:07;;;;;;;12.75;7.32;;;7.80;99.90;;;;;;5066851;28;20420;-72
2021/04/27 06:30:33;;;;;;;12.68;7.50;;;7.80;99.90;;;;;;5064807;28;20029;-72
2021/04/27 06:32:59;;;;;;;13.35;7.22;;;7.90;99.90;;;;;;5064875;28;20028;-71
2021/04/27 06:35:25;;;;;;;9.73;6.00;;;7.90;99.80;;;;;;5066027;28;20052;-72
2021/04/27 06:37:52;;;;;;;10.10;6.55;;;8.10;98.50;;;;;;5065369;28;20037;-71
2021/04/27 06:40:18;;;;;;;16.95;7.13;;;8.10;98.30;;;;;;5063871;28;20043;-72
2021/04/27 06:42:44;;;;;;;12.27;6.90;;;8.20;98.80;;;;;;5047551;28;20016;-71
2021/04/27 06:45:10;;;;;;;14.05;6.20;;;8.30;98.20;;;;;;5066550;28;20549;-72
2021/04/27 06:47:36;;;;;;;10.80;5.78;;;8.50;98.00;;;;;;5068615;28;20052;-72
2021/04/27 06:50:03;;;;;;;12.52;6.43;;;8.70;96.60;;;;;;5057961;28;20067;-71
2021/04/27 06:52:29;;;;;;;12.45;5.70;;;8.70;96.70;;;;;;5061719;28;20020;-72
2021/04/27 06:54:55;;;;;;;9.38;5.40;;;8.90;95.80;;;;;;5064960;28;20017;-72
2021/04/27 06:57:20;;;;;;;6.07;4.93;;;8.90;96.40;;;;;;5062267;28;20043;-71
2021/04/27 06:59:46;;;;;;;14.45;5.80;;;9.00;95.80;;;;;;5065137;28;20039;-70
2021/04/27 07:02:12;;;;;;;13.57;5.47;;;8.90;95.60;;;;;;5051799;28;20013;-71
2021/04/27 07:04:38;;;;;;;11.15;4.85;;;9.20;95.00;;;;;;5063884;28;20040;-71
2021/04/27 07:07:04;;;;;;;12.07;5.30;;;9.10;94.70;;;;;;5051662;28;20043;-71
2021/04/27 07:09:30;;;;;;;12.30;5.28;;;9.10;94.30;;;;;;5065092;28;20025;-71
2021/04/27 07:11:57;;;;;;;12.00;5.65;;;9.10;94.00;;;;;;5054852;28;20024;-71
2021/04/27 07:14:23;;;;;;;10.75;5.30;;;9.20;94.20;;;;;;5060600;28;20579;-71
2021/04/27 07:16:49;;;;;;;12.85;5.75;;;9.30;93.80;;;;;;5073425;28;20501;-71
2021/04/27 07:19:15;;;;;;;10.30;4.95;;;9.30;94.50;;;;;;5073470;28;20036;-71
2021/04/27 07:21:41;;;;;;;9.02;5.20;;;9.40;94.00;;;;;;5061651;28;20036;-72
2021/04/27 07:24:08;;;;;;;7.50;4.90;;;9.60;93.50;;;;;;5067373;28;20025;-71
2021/04/27 07:26:35;;;;;;;9.00;5.10;;;9.80;93.20;;;;;;5071531;28;20029;-70
2021/04/27 07:29:01;;;;;;;8.35;4.60;;;10.00;93.60;;;;;;5066265;28;20064;-70
2021/04/27 07:31:27;;;;;;;9.90;5.07;;;10.10;92.90;;;;;;5068204;28;20020;-71
2021/04/27 07:33:53;;;;;;;9.73;4.80;;;10.20;92.90;;;;;;5070099;28;20116;-69
2021/04/27 07:36:19;;;;;;;8.40;4.90;;;10.40;92.60;;;;;;5065916;28;20035;-69
2021/04/27 07:38:45;;;;;;;7.90;4.75;;;10.40;92.60;;;;;;5068724;28;20041;-69
2021/04/27 07:41:11;;;;;;;8.18;5.22;;;10.70;91.70;;;;;;5069352;28;20106;-69
2021/04/27 07:43:37;;;;;;;10.50;5.20;;;10.80;90.50;;;;;;5070428;28;20477;-68
2021/04/27 07:46:03;;;;;;;7.45;4.68;;;11.10;92.00;;;;;;5070006;28;20540;-71
2021/04/27 07:48:29;;;;;;;8.10;5.43;;;11.30;90.90;;;;;;5068234;28;20075;-69
2021/04/27 07:50:55;;;;;;;7.10;4.85;;;11.20;90.20;;;;;;5066540;28;20599;-69
2021/04/27 07:53:21;;;;;;;12.70;4.75;;;11.30;90.20;;;;;;5055231;28;20032;-69
2021/04/27 07:55:47;;;;;;;15.65;5.50;;;11.30;89.70;;;;;;5067905;28;20500;-71
2021/04/27 07:58:13;;;;;;;9.63;4.45;;;11.30;89.20;;;;;;5074179;28;20054;-70
2021/04/27 08:00:39;;;;;;;8.35;4.63;;;11.30;89.20;;;;;;5070849;28;20028;-72
2021/04/27 08:03:05;;;;;;;7.78;4.50;;;11.30;88.60;;;;;;5072915;28;20032;-69
2021/04/27 08:05:31;;;;;;;11.75;4.90;;;11.60;85.90;;;;;;5069646;28;20061;-68
2021/04/27 08:07:56;;;;;;;10.18;5.10;;;11.60;85.40;;;;;;5062143;28;20064;-68
2021/04/27 08:10:23;;;;;;;9.02;5.10;;;11.80;85.30;;;;;;5067848;28;20016;-68
2021/04/27 08:12:50;;;;;;;9.05;4.78;;;11.80;85.80;;;;;;5065950;28;20541;-68
2021/04/27 08:15:23;;;;;;;9.98;4.57;;;11.90;84.80;;;;;;5071025;28;20024;-69
2021/04/27 08:17:49;;;;;;;8.73;3.80;;;12.10;83.60;;;;;;5075207;28;20036;-69
2021/04/27 08:20:16;;;;;;;6.70;4.30;;;12.10;84.70;;;;;;5069266;28;20016;-70
2021/04/27 08:22:43;;;;;;;6.97;4.13;;;12.30;84.20;;;;;;5067701;28;20037;-69
2021/04/27 08:25:09;;;;;;;10.25;4.43;;;12.50;84.80;;;;;;5069018;28;20019;-72
2021/04/27 08:27:36;;;;;;;6.93;3.63;;;12.80;84.50;;;;;;5064245;28;20028;-73
2021/04/27 08:30:04;;;;;;;7.18;4.03;;;13.00;80.80;;;;;;5069591;28;20043;-72
2021/04/27 08:32:30;;;;;;;9.02;4.10;;;12.90;81.10;;;;;;5061880;28;20482;-70
2021/04/27 08:34:55;;;;;;;8.40;4.65;;;13.00;81.60;;;;;;5071636;28;20051;-71
2021/04/27 08:37:21;;;;;;;4.57;4.18;;;13.20;82.00;;;;;;5067790;28;20427;-72
2021/04/27 08:39:47;;;;;;;10.15;5.53;;;13.10;78.70;;;;;;5063076;28;20039;-73
2021/04/27 08:42:13;;;;;;;6.05;4.43;;;13.20;79.60;;;;;;5065555;28;20017;-73
2021/04/27 08:44:39;;;;;;;5.18;3.95;;;13.40;80.00;;;;;;5060913;28;20473;-72
2021/04/27 08:47:07;;;;;;;11.25;4.57;;;13.50;78.40;;;;;;5056599;28;20420;-72
2021/04/27 08:49:32;;;;;;;9.02;4.82;;;13.70;77.90;;;;;;5071244;28;20107;-72
2021/04/27 08:51:58;;;;;;;9.88;4.47;;;13.70;77.50;;;;;;5064449;28;20513;-73
2021/04/27 08:54:24;;;;;;;5.78;4.38;;;13.80;77.60;;;;;;5062753;28;20032;-73
2021/04/27 08:56:50;;;;;;;14.07;4.63;;;13.90;77.50;;;;;;5066652;28;20385;-73
2021/04/27 08:59:16;;;;;;;4.25;3.30;;;14.20;76.80;;;;;;5070277;28;20036;-73
2021/04/27 09:01:42;;;;;;;5.68;3.90;;;14.30;74.30;;;;;;5062442;28;20017;-73
2021/04/27 09:04:07;;;;;;;7.68;4.18;;;14.30;76.60;;;;;;5066143;28;20567;-72
2021/04/27 09:06:33;;;;;;;9.52;4.13;;;14.30;74.80;;;;;;5062972;28;20522;-71
2021/04/27 09:08:59;;;;;;;15.55;4.15;;;14.40;74.10;;;;;;5068488;28;20100;-71
2021/04/27 09:11:27;;;;;;;10.27;3.88;;;14.70;72.40;;;;;;5060959;28;20103;-69
2021/04/27 09:14:14;;;;;;;7.35;4.28;;;14.70;74.30;;;;;;5059260;28;20100;-67
2021/04/27 09:16:52;;;;;;;7.25;4.03;;;14.70;71.60;;;;;;5068333;28;20021;-68
2021/04/27 09:19:41;;;;;;;5.97;3.70;;;14.90;73.40;;;;;;5063874;28;20037;-68
2021/04/27 09:22:13;;;;;;;7.10;3.80;;;15.00;68.80;;;;;;5050272;28;20056;-68
2021/04/27 09:24:42;;;;;;;6.63;4.13;;;15.00;72.10;;;;;;5068519;28;20036;-68
2021/04/27 09:27:09;;;;;;;9.32;3.58;;;15.20;69.50;;;;;;5072561;28;20024;-68
2021/04/27 09:29:38;;;;;;;7.57;3.50;;;15.20;69.00;;;;;;5070407;28;20504;-70
2021/04/27 09:32:04;;;;;;;6.07;3.38;;;15.60;70.00;;;;;;5072654;28;20028;-70
2021/04/27 09:34:33;;;;;;;5.32;3.65;;;15.60;68.60;;;;;;5068897;28;20661;-71
2021/04/27 09:37:06;;;;;;;7.25;3.65;;;15.60;67.60;;;;;;5053305;28;20090;-71
2021/04/27 09:39:39;;;;;;;;;;;15.60;66.40;;;;;;5069349;28;20081;-68
2021/04/27 09:42:09;;;;;;;8.00;3.50;;;15.60;65.10;;;;;;5050289;28;20292;-70
2021/04/27 09:44:40;;;;;;;4.60;3.45;;;15.60;65.30;;;;;;5067278;28;20477;-70
2021/04/27 09:47:11;;;;;;;8.80;3.80;;;15.90;67.30;;;;;;5055839;28;20048;-72
2021/04/27 09:49:37;;;;;;;6.25;3.50;;;16.10;66.40;;;;;;5065708;28;20223;-72
2021/04/27 09:52:10;;;;;;;6.60;3.22;;;16.20;66.20;;;;;;5064329;28;20020;-71
2021/04/27 09:54:59;;;;;;;6.15;3.30;;;16.40;65.10;;;;;;5070250;28;20017;-72
2021/04/27 09:57:31;;;;;;;7.32;3.72;;;16.70;65.50;;;;;;5067798;28;20036;-71
2021/04/27 10:00:20;;;;;;;5.90;3.60;;;16.60;61.90;;;;;;5064028;28;20048;-69
2021/04/27 10:02:46;;;;;;;5.68;3.47;;;16.50;62.00;;;;;;5039660;28;20033;-71
2021/04/27 10:05:12;;;;;;;5.55;4.35;;;16.70;62.30;;;;;;5070851;28;20078;-71
2021/04/27 10:07:39;;;;;;;8.27;3.40;;;16.70;60.80;;;;;;5047490;28;20452;-74
2021/04/27 10:10:11;;;;;;;6.30;3.10;;;16.70;58.90;;;;;;5067112;28;20036;-70
2021/04/27 10:12:38;;;;;;;5.70;3.20;;;16.80;59.70;;;;;;5073470;28;20082;-70
2021/04/27 10:15:04;;;;;;;6.65;3.28;;;17.10;59.50;;;;;;5067947;28;20588;-70
2021/04/27 10:17:30;;;;;;;6.50;3.70;;;17.30;60.20;;;;;;5063094;28;20032;-70
2021/04/27 10:19:57;;;;;;;7.20;3.60;;;17.10;57.30;;;;;;5069291;28;20037;-70
2021/04/27 10:22:26;;;;;;;7.07;2.90;;;17.00;57.60;;;;;;5069980;28;20024;-70
2021/04/27 10:24:54;;;;;;;3.55;3.25;;;17.20;59.10;;;;;;5065874;28;22377;-70
2021/04/27 10:27:27;;;;;;;4.05;3.13;;;17.30;60.80;;;;;;5073635;28;20027;-70
2021/04/27 10:30:18;;;;;;;3.65;3.30;;;17.30;57.90;;;;;;5054377;28;20029;-69
2021/04/27 10:33:06;;;;;;;6.20;4.20;;;17.20;56.90;;;;;;5066815;28;20035;-71
2021/04/27 10:36:00;;;;;;;12.77;3.67;;;17.30;59.50;;;;;;5065346;28;20029;-70
2021/04/27 10:38:40;;;;;;;9.90;3.72;;;17.30;59.00;;;;;;5066890;28;20501;-70
2021/04/27 10:41:11;;;;;;;5.25;3.78;;;17.40;56.80;;;;;;5050822;28;20469;-70
2021/04/27 10:43:39;;;;;;;4.07;3.67;;;17.30;56.90;;;;;;5063909;28;20031;-70
2021/04/27 10:46:10;;;;;;;5.60;3.88;;;17.30;58.40;;;;;;5069819;28;20028;-71
2021/04/27 10:48:40;;;;;;;7.15;4.10;;;17.50;59.60;;;;;;5073636;28;20028;-70
2021/04/27 10:51:21;;;;;;;5.07;4.05;;;17.60;54.90;;;;;;5068076;28;20127;-70
2021/04/27 10:54:11;;;;;;;5.70;4.40;;;17.50;57.00;;;;;;5070308;28;20026;-70
2021/04/27 10:56:38;;;;;;;8.60;3.85;;;17.90;57.40;;;;;;5070759;28;20029;-70
2021/04/27 10:59:21;;;;;;;5.57;3.90;;;17.90;57.60;;;;;;5068009;28;20040;-70
2021/04/27 11:01:49;;;;;;;6.85;3.97;;;18.00;57.20;;;;;;5062357;28;20081;-70
2021/04/27 11:04:44;;;;;;;8.98;3.58;;;18.20;59.70;;;;;;5065309;28;20110;-70
2021/04/27 11:07:19;;;;;;;7.65;3.80;;;18.50;57.70;;;;;;5069682;28;20032;-70
2021/04/27 11:10:04;;;;;;;5.85;4.00;;;18.40;58.40;;;;;;5062487;28;20041;-70
2021/04/27 11:12:33;;;;;;;5.95;3.72;;;18.50;54.90;;;;;;5064450;28;20600;-70
2021/04/27 11:15:10;;;;;;;5.85;4.25;;;18.60;57.30;;;;;;5069241;28;20060;-70
2021/04/27 11:17:39;;;;;;;7.45;4.22;;;18.60;55.20;;;;;;5066293;28;20012;-70
2021/04/27 11:20:08;;;;;;;13.65;4.10;;;18.40;56.10;;;;;;5066793;28;20048;-70
2021/04/27 11:22:36;;;;;;;9.35;4.35;;;18.10;53.50;;;;;;5067000;28;20704;-70
2021/04/27 11:25:07;;;;;;;9.20;4.15;;;17.90;56.40;;;;;;5070969;28;20033;-70
2021/04/27 11:27:37;;;;;;;5.80;4.72;;;18.00;56.20;;;;;;5071751;28;20015;-70
2021/04/27 11:30:03;;;;;;;6.03;4.18;;;17.70;57.80;;;;;;5070326;28;20568;-70
2021/04/27 11:32:31;;;;;;;10.32;4.60;;;17.80;55.00;;;;;;5076448;28;20020;-70
2021/04/27 11:35:00;;;;;;;6.50;4.18;;;18.00;58.10;;;;;;5075785;28;20063;-70
2021/04/27 11:37:46;;;;;;;8.52;4.25;;;18.20;55.80;;;;;;5070702;28;20040;-70
2021/04/27 11:40:37;;;;;;;7.70;4.43;;;18.30;54.80;;;;;;5072301;28;20127;-70
2021/04/27 11:43:14;;;;;;;7.93;4.55;;;18.00;53.10;;;;;;5078862;28;20030;-69
2021/04/27 11:45:45;;;;;;;11.65;5.32;;;18.30;55.40;;;;;;5071098;28;20024;-70
2021/04/27 11:48:14;;;;;;;6.40;4.68;;;18.20;56.70;;;;;;5080887;28;20046;-70
2021/04/27 11:50:40;;;;;;;7.78;5.65;;;18.40;54.40;;;;;;5073638;28;20028;-70
2021/04/27 11:53:15;;;;;;;6.05;4.80;;;18.50;55.80;;;;;;5090745;28;20099;-70
2021/04/27 11:55:46;;;;;;;5.25;4.57;;;18.40;55.30;;;;;;5071993;28;20068;-70
2021/04/27 11:58:16;;;;;;;7.00;4.35;;;18.30;54.60;;;;;;5073525;28;20040;-71
2021/04/27 12:00:46;;;;;;;9.75;4.63;;;18.40;54.40;;;;;;5068976;28;20538;-71
2021/04/27 12:03:16;;;;;;;6.50;4.68;;;18.20;54.30;;;;;;5060174;28;20502;-71
2021/04/27 12:05:42;;;;;;;9.35;4.68;;;18.30;54.10;;;;;;5069889;28;20138;-71
2021/04/27 12:08:16;;;;;;;6.47;4.22;;;18.70;53.50;;;;;;5071005;28;20028;-71
2021/04/27 12:10:42;;;;;;;5.13;4.10;;;18.80;57.90;;;;;;5075814;28;20028;-71
2021/04/27 12:13:19;;;;;;;7.18;4.32;;;19.20;56.30;;;;;;5079881;28;20027;-71
2021/04/27 12:15:44;;;;;;;5.03;4.55;;;19.00;54.40;;;;;;5055604;28;20025;-71
2021/04/27 12:18:10;;;;;;;7.30;5.05;;;18.80;54.20;;;;;;5077638;28;20089;-71
2021/04/27 12:20:36;;;;;;;7.03;4.10;;;18.90;54.60;;;;;;5076525;28;20485;-71
2021/04/27 12:23:05;;;;;;;10.52;4.53;;;19.00;55.30;;;;;;5077722;28;20059;-71
2021/04/27 12:25:30;;;;;;;8.27;5.10;;;18.70;53.60;;;;;;5069408;28;20024;-71
2021/04/27 12:28:05;;;;;;;9.05;4.72;;;18.30;53.30;;;;;;5073531;28;20028;-71
2021/04/27 12:30:33;;;;;;;8.55;4.78;;;18.40;54.00;;;;;;5068811;28;20096;-71
2021/04/27 12:33:02;;;;;;;9.23;3.90;;;18.40;57.30;;;;;;5074031;28;20021;-70
2021/04/27 12:35:31;;;;;;;6.95;4.97;;;18.40;53.60;;;;;;5075867;28;20016;-72
2021/04/27 12:38:12;;;;;;;7.95;4.63;;;18.30;52.80;;;;;;5065505;28;20032;-71
2021/04/27 12:40:43;;;;;;;6.93;4.40;;;18.20;53.60;;;;;;5074340;28;20385;-71
2021/04/27 12:43:11;;;;;;;11.05;4.60;;;18.30;54.80;;;;;;5073634;28;20028;-71
2021/04/27 12:45:58;;;;;;;7.68;4.63;;;18.50;52.40;;;;;;5074254;28;20048;-70
2021/04/27 12:48:24;;;;;;;8.20;4.10;;;18.60;53.60;;;;;;5072325;28;20472;-71
2021/04/27 12:51:07;;;;;;;6.85;5.00;;;18.70;55.70;;;;;;5073993;28;20106;-71
2021/04/27 12:53:41;;;;;;;6.55;4.70;;;18.50;53.70;;;;;;5074826;28;20105;-71